CMA CGM Otello — FMEJ — position and weather

sailwx.info

Track history (hours):
 
Tides and Currents Weather Stations Pressure Air Temp Water Temp Dewpoint Dewpoint Depression Visibility Wind Speed Wind Dir Waves Ship Positions

CMA CGM Otello

Last reported at 2018-Jun-20 09:39 UTC. Time now 2018-Jun-20 15:05 UTC.
Position N 38°56' E 118°04'.

Length 330 m; draft 10.6 m.

Type: Cargo ship. MMSI: 228353600.

Date/timePositionNaut miles runAvg speedWind from/ knotsBaromVisibWave heightAir tempDewpointWater temp
2018-Jun-20 09:39N 38°56' E 118°04'1 5.9
2018-Jun-20 09:30N 38°56' E 118°05'1312.2
2018-Jun-20 08:23N 38°51' E 118°21'815.2
2018-Jun-20 07:53N 38°50' E 118°31'612.8
2018-Jun-20 07:23N 38°50' E 118°39'715.2
2018-Jun-20 06:57N 38°49' E 118°47'715.0
2018-Jun-20 06:30N 38°48' E 118°56'915.1
2018-Jun-20 05:55N 38°47' E 119°07'615.3
2018-Jun-20 05:30N 38°47' E 119°15'715.1
2018-Jun-20 05:00N 38°46' E 119°25'715.0
2018-Jun-20 04:31N 38°46' E 119°34'915.0
2018-Jun-20 03:54N 38°45' E 119°46'814.3
2018-Jun-20 03:20N 38°43' E 119°56'715.3
2018-Jun-20 02:53N 38°42' E 120°05'615.2
2018-Jun-20 02:30N 38°41' E 120°12'815.1
2018-Jun-20 01:57N 38°41' E 120°23'715.6
2018-Jun-20 01:30N 38°40' E 120°32'2312.0
2018-Jun-19 23:33N 38°34' E 121°01'410.0
2018-Jun-19 23:10N 38°33' E 121°05'210.1
2018-Jun-19 23:00N 38°32' E 121°07'612.1
2018-Jun-19 22:30N 38°29' E 121°14'1217.0
2018-Jun-19 21:49N 38°22' E 121°26'817.3
2018-Jun-19 21:20N 38°18' E 121°35'1517.1
2018-Jun-19 20:26N 38°11' E 121°52'717.0
2018-Jun-19 20:00N 38°06' E 121°60'14910.5
2018-Jun-19 05:44N 36°02' E 120°17'3 9.9
2018-Jun-19 05:25N 36°00' E 120°13'1 0.5
2018-Jun-19 04:25N 36°00' E 120°12'0 0.0
2018-Jun-19 03:50N 36°00' E 120°12'0 0.0
2018-Jun-19 02:58N 36°00' E 120°12'0 0.0
2018-Jun-19 02:26N 36°00' E 120°12'0 0.0
2018-Jun-19 01:46N 36°00' E 120°12'0 0.0
2018-Jun-19 01:19N 36°00' E 120°12'0 0.0
2018-Jun-19 00:07N 36°00' E 120°12'0 0.2
2018-Jun-18 23:49N 36°00' E 120°12'0 0.0
2018-Jun-18 23:17N 36°00' E 120°12'  
2018-Jun-12 18:28N 01°39' E 104°40'1119.1
2018-Jun-12 17:53N 01°29' E 104°35'718.8
2018-Jun-12 17:30N 01°25' E 104°29'1219.9
2018-Jun-12 16:55N 01°18' E 104°20'819.8
2018-Jun-12 16:30N 01°16' E 104°12'919.0
2018-Jun-12 16:00N 01°15' E 104°02'918.9
2018-Jun-12 15:30N 01°12' E 103°54'510.3
2018-Jun-12 15:00N 01°13' E 103°48'3 6.9
2018-Jun-12 14:30N 01°16' E 103°48'0 0.0
2018-Jun-12 14:00N 01°16' E 103°48'0 0.0
2018-Jun-12 13:26N 01°16' E 103°48'0 0.0
2018-Jun-12 12:59N 01°16' E 103°48'0 0.0
2018-Jun-12 12:30N 01°16' E 103°48'0 0.0
2018-Jun-12 11:59N 01°16' E 103°48'0 0.0
2018-Jun-12 11:30N 01°16' E 103°48'0 0.0
2018-Jun-12 11:00N 01°16' E 103°48'0 0.0
2018-Jun-12 10:30N 01°16' E 103°48'0 0.0
2018-Jun-12 10:00N 01°16' E 103°48'0 0.0
2018-Jun-12 09:26N 01°16' E 103°48'0 0.0
2018-Jun-12 08:56N 01°16' E 103°48'0 0.0
2018-Jun-12 08:30N 01°16' E 103°48'0 0.0
2018-Jun-12 08:00N 01°16' E 103°48'0 0.0
2018-Jun-12 07:27N 01°16' E 103°48'0 0.0
2018-Jun-12 06:58N 01°16' E 103°48'0 0.0
2018-Jun-12 06:28N 01°16' E 103°48'0 0.0
2018-Jun-12 05:58N 01°16' E 103°48'0 0.0
2018-Jun-12 05:29N 01°16' E 103°48'0 0.0
2018-Jun-12 04:58N 01°16' E 103°48'0 0.0
2018-Jun-12 04:26N 01°16' E 103°48'0 0.0
2018-Jun-12 03:59N 01°16' E 103°48'0 0.0
2018-Jun-12 03:29N 01°16' E 103°48'0 0.0
2018-Jun-12 02:59N 01°16' E 103°48'0 0.0
2018-Jun-12 02:29N 01°16' E 103°48'0 0.0
2018-Jun-12 01:59N 01°16' E 103°48'0 0.0
2018-Jun-12 01:29N 01°16' E 103°48'0 0.0
2018-Jun-12 00:59N 01°16' E 103°48'0 0.0
2018-Jun-12 00:28N 01°16' E 103°48'0 0.0
2018-Jun-11 23:59N 01°16' E 103°48'0 0.0
2018-Jun-11 23:22N 01°16' E 103°48'0 0.0
2018-Jun-11 22:56N 01°16' E 103°48'0 0.0
2018-Jun-11 22:19N 01°16' E 103°48'0 0.0
2018-Jun-11 21:58N 01°16' E 103°48'0 0.0
2018-Jun-11 21:30N 01°16' E 103°48'0 0.0
2018-Jun-11 20:58N 01°16' E 103°48'0 0.0
2018-Jun-11 20:25N 01°16' E 103°48'0 0.0
2018-Jun-11 19:58N 01°16' E 103°48'0 0.0
2018-Jun-11 19:19N 01°16' E 103°48'0 0.0
2018-Jun-11 18:55N 01°16' E 103°48'0 0.0
2018-Jun-11 18:25N 01°16' E 103°48'0 0.0
2018-Jun-11 17:59N 01°16' E 103°48'0 0.0
2018-Jun-11 17:28N 01°16' E 103°48'0 0.0
2018-Jun-11 16:58N 01°16' E 103°48'0 0.0
2018-Jun-11 16:28N 01°16' E 103°48'0 0.0
2018-Jun-11 15:46N 01°16' E 103°48'0 0.0
2018-Jun-11 15:28N 01°16' E 103°48'0 0.1
2018-Jun-11 15:00N 01°16' E 103°48'0 0.9
2018-Jun-11 14:30N 01°15' E 103°48'2 4.2
2018-Jun-11 14:00N 01°15' E 103°45'4 7.9
2018-Jun-11 13:30N 01°13' E 103°42'511.0
2018-Jun-11 13:00N 01°13' E 103°36'3 6.2
2018-Jun-11 12:30N 01°11' E 103°34'4 8.2
2018-Jun-11 12:00N 01°10' E 103°30'4 8.3
2018-Jun-11 11:31N 01°11' E 103°26'4 7.9
2018-Jun-11 11:00N 01°14' E 103°23'4 8.1
2018-Jun-11 10:30N 01°16' E 103°20'5 9.8
2018-Jun-11 09:59N 01°20' E 103°16'810.1
2018-Jun-11 09:13N 01°24' E 103°10'410.1
2018-Jun-11 08:49N 01°27' E 103°06'  
Track history (hours):
 
Tides and Currents Weather Stations Pressure Air Temp Water Temp Dewpoint Dewpoint Depression Visibility Wind Speed Wind Dir Waves Ship Positions

CMA CGM Otello

Last reported at 2018-Jun-20 09:39 UTC. Time now 2018-Jun-20 15:05 UTC.
Position N 38°56' E 118°04'.

Length 330 m; draft 10.6 m.

Type: Cargo ship. MMSI: 228353600.

Date/timePositionNaut miles runAvg speedWind from/ knotsBaromVisibWave heightAir tempDewpointWater temp
2018-Jun-20 09:39N 38°56' E 118°04'1 5.9
2018-Jun-20 09:30N 38°56' E 118°05'1312.2
2018-Jun-20 08:23N 38°51' E 118°21'815.2
2018-Jun-20 07:53N 38°50' E 118°31'612.8
2018-Jun-20 07:23N 38°50' E 118°39'715.2
2018-Jun-20 06:57N 38°49' E 118°47'715.0
2018-Jun-20 06:30N 38°48' E 118°56'915.1
2018-Jun-20 05:55N 38°47' E 119°07'615.3
2018-Jun-20 05:30N 38°47' E 119°15'715.1
2018-Jun-20 05:00N 38°46' E 119°25'715.0
2018-Jun-20 04:31N 38°46' E 119°34'915.0
2018-Jun-20 03:54N 38°45' E 119°46'814.3
2018-Jun-20 03:20N 38°43' E 119°56'715.3
2018-Jun-20 02:53N 38°42' E 120°05'615.2
2018-Jun-20 02:30N 38°41' E 120°12'815.1
2018-Jun-20 01:57N 38°41' E 120°23'715.6
2018-Jun-20 01:30N 38°40' E 120°32'2312.0
2018-Jun-19 23:33N 38°34' E 121°01'410.0
2018-Jun-19 23:10N 38°33' E 121°05'210.1
2018-Jun-19 23:00N 38°32' E 121°07'612.1
2018-Jun-19 22:30N 38°29' E 121°14'1217.0
2018-Jun-19 21:49N 38°22' E 121°26'817.3
2018-Jun-19 21:20N 38°18' E 121°35'1517.1
2018-Jun-19 20:26N 38°11' E 121°52'717.0
2018-Jun-19 20:00N 38°06' E 121°60'14910.5
2018-Jun-19 05:44N 36°02' E 120°17'3 9.9
2018-Jun-19 05:25N 36°00' E 120°13'1 0.5
2018-Jun-19 04:25N 36°00' E 120°12'0 0.0
2018-Jun-19 03:50N 36°00' E 120°12'0 0.0
2018-Jun-19 02:58N 36°00' E 120°12'0 0.0
2018-Jun-19 02:26N 36°00' E 120°12'0 0.0
2018-Jun-19 01:46N 36°00' E 120°12'0 0.0
2018-Jun-19 01:19N 36°00' E 120°12'0 0.0
2018-Jun-19 00:07N 36°00' E 120°12'0 0.2
2018-Jun-18 23:49N 36°00' E 120°12'0 0.0
2018-Jun-18 23:17N 36°00' E 120°12'  
2018-Jun-12 18:28N 01°39' E 104°40'1119.1
2018-Jun-12 17:53N 01°29' E 104°35'718.8
2018-Jun-12 17:30N 01°25' E 104°29'1219.9
2018-Jun-12 16:55N 01°18' E 104°20'819.8
2018-Jun-12 16:30N 01°16' E 104°12'919.0
2018-Jun-12 16:00N 01°15' E 104°02'918.9
2018-Jun-12 15:30N 01°12' E 103°54'510.3
2018-Jun-12 15:00N 01°13' E 103°48'3 6.9
2018-Jun-12 14:30N 01°16' E 103°48'0 0.0
2018-Jun-12 14:00N 01°16' E 103°48'0 0.0
2018-Jun-12 13:26N 01°16' E 103°48'0 0.0
2018-Jun-12 12:59N 01°16' E 103°48'0 0.0
2018-Jun-12 12:30N 01°16' E 103°48'0 0.0
2018-Jun-12 11:59N 01°16' E 103°48'0 0.0
2018-Jun-12 11:30N 01°16' E 103°48'0 0.0
2018-Jun-12 11:00N 01°16' E 103°48'0 0.0
2018-Jun-12 10:30N 01°16' E 103°48'0 0.0
2018-Jun-12 10:00N 01°16' E 103°48'0 0.0
2018-Jun-12 09:26N 01°16' E 103°48'0 0.0
2018-Jun-12 08:56N 01°16' E 103°48'0 0.0
2018-Jun-12 08:30N 01°16' E 103°48'0 0.0
2018-Jun-12 08:00N 01°16' E 103°48'0 0.0
2018-Jun-12 07:27N 01°16' E 103°48'0 0.0
2018-Jun-12 06:58N 01°16' E 103°48'0 0.0
2018-Jun-12 06:28N 01°16' E 103°48'0 0.0
2018-Jun-12 05:58N 01°16' E 103°48'0 0.0
2018-Jun-12 05:29N 01°16' E 103°48'0 0.0
2018-Jun-12 04:58N 01°16' E 103°48'0 0.0
2018-Jun-12 04:26N 01°16' E 103°48'0 0.0
2018-Jun-12 03:59N 01°16' E 103°48'0 0.0
2018-Jun-12 03:29N 01°16' E 103°48'0 0.0
2018-Jun-12 02:59N 01°16' E 103°48'0 0.0
2018-Jun-12 02:29N 01°16' E 103°48'0 0.0
2018-Jun-12 01:59N 01°16' E 103°48'0 0.0
2018-Jun-12 01:29N 01°16' E 103°48'0 0.0
2018-Jun-12 00:59N 01°16' E 103°48'0 0.0
2018-Jun-12 00:28N 01°16' E 103°48'0 0.0
2018-Jun-11 23:59N 01°16' E 103°48'0 0.0
2018-Jun-11 23:22N 01°16' E 103°48'0 0.0
2018-Jun-11 22:56N 01°16' E 103°48'0 0.0
2018-Jun-11 22:19N 01°16' E 103°48'0 0.0
2018-Jun-11 21:58N 01°16' E 103°48'0 0.0
2018-Jun-11 21:30N 01°16' E 103°48'0 0.0
2018-Jun-11 20:58N 01°16' E 103°48'0 0.0
2018-Jun-11 20:25N 01°16' E 103°48'0 0.0
2018-Jun-11 19:58N 01°16' E 103°48'0 0.0
2018-Jun-11 19:19N 01°16' E 103°48'0 0.0
2018-Jun-11 18:55N 01°16' E 103°48'0 0.0
2018-Jun-11 18:25N 01°16' E 103°48'0 0.0
2018-Jun-11 17:59N 01°16' E 103°48'0 0.0
2018-Jun-11 17:28N 01°16' E 103°48'0 0.0
2018-Jun-11 16:58N 01°16' E 103°48'0 0.0
2018-Jun-11 16:28N 01°16' E 103°48'0 0.0
2018-Jun-11 15:46N 01°16' E 103°48'0 0.0
2018-Jun-11 15:28N 01°16' E 103°48'0 0.1
2018-Jun-11 15:00N 01°16' E 103°48'0 0.9
2018-Jun-11 14:30N 01°15' E 103°48'2 4.2
2018-Jun-11 14:00N 01°15' E 103°45'4 7.9
2018-Jun-11 13:30N 01°13' E 103°42'511.0
2018-Jun-11 13:00N 01°13' E 103°36'3 6.2
2018-Jun-11 12:30N 01°11' E 103°34'4 8.2
2018-Jun-11 12:00N 01°10' E 103°30'4 8.3
2018-Jun-11 11:31N 01°11' E 103°26'4 7.9
2018-Jun-11 11:00N 01°14' E 103°23'4 8.1
2018-Jun-11 10:30N 01°16' E 103°20'5 9.8
2018-Jun-11 09:59N 01°20' E 103°16'810.1
2018-Jun-11 09:13N 01°24' E 103°10'410.1
2018-Jun-11 08:49N 01°27' E 103°06'  

Dump ship's entire track history